Time,TemperatureF,DewpointF,PressureIn,WindDirection,WindDirectionDegrees,WindSpeedMPH,WindSpeedGustMPH,Humidity,HourlyPrecipIn,Conditions,Clouds,dailyrainin,SoftwareType,DateUTC
2013-06-13 00:11:00,73.1,70.0,29.95,SE,146,2.0,7.0,91,0.00,,,0.00,weatherlink.com 1.10,2013-06-13 05:11:00,
2013-06-13 00:26:00,73.1,71.0,29.95,SSW,208,1.0,4.0,92,0.00,,,0.00,weatherlink.com 1.10,2013-06-13 05:26:00,
2013-06-13 00:41:00,73.1,71.0,29.95,SSE,152,0.0,5.0,92,0.00,,,0.00,weatherlink.com 1.10,2013-06-13 05:41:00,
2013-06-13 00:56:00,73.3,71.0,29.95,South,180,1.0,3.0,92,0.00,,,0.00,weatherlink.com 1.10,2013-06-13 05:56:00,
2013-06-13 01:11:00,73.4,71.0,29.94,SSE,164,4.0,4.0,92,0.00,,,0.00,weatherlink.com 1.10,2013-06-13 06:11:00,
2013-06-13 01:26:00,73.4,71.0,29.95,SW,214,0.0,3.0,92,0.00,,,0.00,weatherlink.com 1.10,2013-06-13 06:26:00,
2013-06-13 01:41:00,73.4,71.0,29.94,SE,144,3.0,5.0,92,0.00,,,0.00,weatherlink.com 1.10,2013-06-13 06:41:00,
2013-06-13 01:56:00,73.3,71.0,29.94,SSE,160,1.0,8.0,92,0.00,,,0.00,weatherlink.com 1.10,2013-06-13 06:56:00,
2013-06-13 02:11:00,73.1,71.0,29.94,SW,214,2.0,7.0,92,0.00,,,0.00,weatherlink.com 1.10,2013-06-13 07:11:00,
2013-06-13 02:26:00,72.9,71.0,29.94,SSW,210,2.0,6.0,93,0.00,,,0.00,weatherlink.com 1.10,2013-06-13 07:26:00,
2013-06-13 02:41:00,72.9,71.0,29.94,SW,217,3.0,5.0,93,0.00,,,0.00,weatherlink.com 1.10,2013-06-13 07:41:00,
2013-06-13 02:56:00,72.9,71.0,29.95,SW,226,2.0,4.0,93,0.00,,,0.00,weatherlink.com 1.10,2013-06-13 07:56:00,
2013-06-13 03:11:00,73.0,71.0,29.94,SSW,203,2.0,4.0,93,0.00,,,0.00,weatherlink.com 1.10,2013-06-13 08:11:00,
2013-06-13 03:26:00,72.8,71.0,29.94,SE,136,1.0,6.0,93,0.00,,,0.00,weatherlink.com 1.10,2013-06-13 08:26:00,
2013-06-13 03:41:00,72.3,71.0,29.94,SE,145,2.0,4.0,94,0.00,,,0.00,weatherlink.com 1.10,2013-06-13 08:41:00,
2013-06-13 03:56:00,72.0,70.0,29.94,SSW,204,0.0,4.0,94,0.00,,,0.00,weatherlink.com 1.10,2013-06-13 08:56:00,
2013-06-13 04:11:00,71.9,70.0,29.94,SSW,204,1.0,3.0,94,0.00,,,0.00,weatherlink.com 1.10,2013-06-13 09:11:00,
2013-06-13 04:26:00,71.8,70.0,29.94,SW,217,2.0,5.0,95,0.00,,,0.00,weatherlink.com 1.10,2013-06-13 09:26:00,
2013-06-13 04:41:00,71.7,70.0,29.94,SE,145,0.0,3.0,95,0.00,,,0.00,weatherlink.com 1.10,2013-06-13 09:41:00,
2013-06-13 04:56:00,71.6,70.0,29.94,SSE,163,1.0,4.0,95,0.00,,,0.00,weatherlink.com 1.10,2013-06-13 09:56:00,
2013-06-13 05:11:00,71.7,70.0,29.94,SSE,153,1.0,3.0,95,0.00,,,0.00,weatherlink.com 1.10,2013-06-13 10:11:00,
2013-06-13 05:26:00,71.8,70.0,29.94,South,174,1.0,4.0,95,0.00,,,0.00,weatherlink.com 1.10,2013-06-13 10:26:00,
2013-06-13 05:41:00,71.8,70.0,29.94,SSW,203,0.0,2.0,95,0.00,,,0.00,weatherlink.com 1.10,2013-06-13 10:41:00,
2013-06-13 05:56:00,71.7,70.0,29.95,SSW,204,0.0,2.0,95,0.00,,,0.00,weatherlink.com 1.10,2013-06-13 10:56:00,
2013-06-13 06:11:00,71.4,70.0,29.95,SSW,203,0.0,0.0,95,0.00,,,0.00,weatherlink.com 1.10,2013-06-13 11:11:00,
2013-06-13 06:26:00,71.4,70.0,29.95,SSW,200,0.0,1.0,95,0.00,,,0.00,weatherlink.com 1.10,2013-06-13 11:26:00,
2013-06-13 06:41:00,71.3,70.0,29.95,SSW,201,0.0,1.0,95,0.00,,,0.00,weatherlink.com 1.10,2013-06-13 11:41:00,
2013-06-13 06:56:00,71.5,70.0,29.96,SSW,200,0.0,1.0,95,0.00,,,0.00,weatherlink.com 1.10,2013-06-13 11:56:00,
2013-06-13 07:11:00,71.8,70.0,29.96,SSW,208,0.0,2.0,95,0.00,,,0.00,weatherlink.com 1.10,2013-06-13 12:11:00,
2013-06-13 07:26:00,72.2,71.0,29.96,SSW,198,1.0,2.0,95,0.00,,,0.00,weatherlink.com 1.10,2013-06-13 12:26:00,
2013-06-13 07:41:00,72.6,71.0,29.96,SSE,159,2.0,2.0,95,0.00,,,0.00,weatherlink.com 1.10,2013-06-13 12:41:00,
2013-06-13 07:56:00,73.0,71.0,29.96,SE,138,0.0,5.0,94,0.00,,,0.00,weatherlink.com 1.10,2013-06-13 12:56:00,
2013-06-13 08:11:00,73.7,72.0,29.97,SSE,159,2.0,3.0,93,0.00,,,0.00,weatherlink.com 1.10,2013-06-13 13:11:00,
2013-06-13 08:26:00,74.0,72.0,29.97,WSW,238,0.0,3.0,92,0.00,,,0.00,weatherlink.com 1.10,2013-06-13 13:26:00,
2013-06-13 08:41:00,76.4,73.0,29.98,South,188,3.0,3.0,88,0.00,,,0.00,weatherlink.com 1.10,2013-06-13 13:41:00,
2013-06-13 08:56:00,76.8,72.0,29.98,SW,215,2.0,4.0,86,0.00,,,0.00,weatherlink.com 1.10,2013-06-13 13:56:00,
2013-06-13 09:12:00,79.2,73.0,29.98,SSW,197,3.0,10.0,80,0.00,,,0.00,weatherlink.com 1.10,2013-06-13 14:12:00,
2013-06-13 09:27:00,79.7,72.0,29.99,SW,231,9.0,11.0,78,0.00,,,0.00,weatherlink.com 1.10,2013-06-13 14:27:00,
2013-06-13 09:42:00,80.9,73.0,29.99,SW,226,8.0,8.0,76,0.00,,,0.00,weatherlink.com 1.10,2013-06-13 14:42:00,
2013-06-13 09:57:00,82.2,73.0,30.00,South,187,3.0,11.0,73,0.00,,,0.00,weatherlink.com 1.10,2013-06-13 14:57:00,
2013-06-13 10:12:00,81.9,72.0,29.99,WSW,245,6.0,11.0,73,0.00,,,0.00,weatherlink.com 1.10,2013-06-13 15:12:00,
2013-06-13 10:27:00,82.5,72.0,29.99,SSW,200,7.0,12.0,70,0.00,,,0.00,weatherlink.com 1.10,2013-06-13 15:27:00,
2013-06-13 10:42:00,83.6,72.0,29.98,WSW,246,2.0,10.0,68,0.00,,,0.00,weatherlink.com 1.10,2013-06-13 15:42:00,
2013-06-13 10:57:00,84.3,72.0,29.99,SSW,204,2.0,13.0,67,0.00,,,0.00,weatherlink.com 1.10,2013-06-13 15:57:00,
2013-06-13 11:12:00,84.8,72.0,29.98,South,183,5.0,11.0,65,0.00,,,0.00,weatherlink.com 1.10,2013-06-13 16:12:00,
2013-06-13 11:27:00,83.1,72.0,29.98,South,191,4.0,7.0,69,0.00,,,0.00,weatherlink.com 1.10,2013-06-13 16:27:00,
2013-06-13 11:42:00,83.5,72.0,29.98,SSW,213,1.0,9.0,68,0.00,,,0.00,weatherlink.com 1.10,2013-06-13 16:42:00,
2013-06-13 11:57:00,85.2,71.0,29.98,WSW,250,4.0,8.0,63,0.00,,,0.00,weatherlink.com 1.10,2013-06-13 16:57:00,
2013-06-13 12:12:00,85.0,72.0,29.98,WSW,240,5.0,8.0,65,0.00,,,0.00,weatherlink.com 1.10,2013-06-13 17:12:00,
2013-06-13 12:27:00,86.5,72.0,29.97,SSW,204,7.0,8.0,62,0.00,,,0.00,weatherlink.com 1.10,2013-06-13 17:27:00,
2013-06-13 12:42:00,87.5,71.0,29.96,SSE,159,2.0,12.0,58,0.00,,,0.00,weatherlink.com 1.10,2013-06-13 17:42:00,
2013-06-13 12:57:00,85.0,71.0,29.96,SSW,213,6.0,9.0,63,0.00,,,0.00,weatherlink.com 1.10,2013-06-13 17:57:00,
2013-06-13 13:12:00,83.1,72.0,29.96,WSW,240,1.0,7.0,69,0.00,,,0.00,weatherlink.com 1.10,2013-06-13 18:12:00,
2013-06-13 13:27:00,87.7,73.0,29.95,NNE,20,2.0,8.0,62,0.00,,,0.00,weatherlink.com 1.10,2013-06-13 18:27:00,
2013-06-13 13:42:00,87.6,71.0,29.95,WSW,250,4.0,8.0,58,0.00,,,0.00,weatherlink.com 1.10,2013-06-13 18:42:00,
2013-06-13 13:57:00,88.2,71.0,29.93,SSW,205,3.0,9.0,57,0.00,,,0.00,weatherlink.com 1.10,2013-06-13 18:57:00,
2013-06-13 14:12:00,88.0,70.0,29.92,ENE,58,3.0,10.0,55,0.00,,,0.00,weatherlink.com 1.10,2013-06-13 19:12:00,
2013-06-13 14:27:00,88.6,69.0,29.91,SSW,195,5.0,11.0,53,0.00,,,0.00,weatherlink.com 1.10,2013-06-13 19:27:00,
2013-06-13 14:42:00,89.4,70.0,29.91,WSW,240,5.0,10.0,53,0.00,,,0.00,weatherlink.com 1.10,2013-06-13 19:42:00,
2013-06-13 14:57:00,91.5,71.0,29.90,SSW,201,5.0,9.0,51,0.00,,,0.00,weatherlink.com 1.10,2013-06-13 19:57:00,
2013-06-13 15:12:00,88.1,70.0,29.90,ESE,110,2.0,12.0,55,0.00,,,0.00,weatherlink.com 1.10,2013-06-13 20:12:00,
2013-06-13 15:27:00,86.9,70.0,29.91,SSW,203,4.0,13.0,57,0.00,,,0.00,weatherlink.com 1.10,2013-06-13 20:27:00,
2013-06-13 15:42:00,86.6,72.0,29.91,SSE,163,10.0,13.0,61,0.00,,,0.00,weatherlink.com 1.10,2013-06-13 20:42:00,
2013-06-13 15:57:00,88.4,71.0,29.90,SW,232,8.0,16.0,56,0.00,,,0.00,weatherlink.com 1.10,2013-06-13 20:57:00,
2013-06-13 16:12:00,87.4,71.0,29.90,SE,135,9.0,14.0,58,0.00,,,0.00,weatherlink.com 1.10,2013-06-13 21:12:00,
2013-06-13 16:27:00,81.7,68.0,29.92,SE,135,13.0,22.0,64,0.00,,,0.00,weatherlink.com 1.10,2013-06-13 21:27:00,
2013-06-13 16:42:00,75.4,69.0,29.92,SSW,210,1.0,14.0,80,0.02,,,0.02,weatherlink.com 1.10,2013-06-13 21:42:00,
2013-06-13 16:57:00,74.2,69.0,29.90,SW,228,1.0,7.0,83,0.03,,,0.03,weatherlink.com 1.10,2013-06-13 21:57:00,
2013-06-13 17:13:00,74.3,69.0,29.89,WSW,239,2.0,4.0,83,0.03,,,0.03,weatherlink.com 1.10,2013-06-13 22:13:00,
2013-06-13 17:27:00,74.0,69.0,29.90,SW,228,4.0,4.0,84,0.03,,,0.03,weatherlink.com 1.10,2013-06-13 22:27:00,
2013-06-13 17:42:00,73.7,69.0,29.90,SSE,154,1.0,3.0,85,0.01,,,0.03,weatherlink.com 1.10,2013-06-13 22:42:00,
2013-06-13 17:57:00,73.6,69.0,29.89,SSW,205,2.0,5.0,85,0.00,,,0.03,weatherlink.com 1.10,2013-06-13 22:57:00,
2013-06-13 18:12:00,73.7,69.0,29.88,SSW,200,3.0,5.0,85,0.00,,,0.03,weatherlink.com 1.10,2013-06-13 23:12:00,
2013-06-13 18:27:00,73.9,69.0,29.88,SSW,195,2.0,4.0,85,0.00,,,0.03,weatherlink.com 1.10,2013-06-13 23:27:00,
2013-06-13 18:42:00,73.9,69.0,29.89,SSE,155,2.0,5.0,85,0.00,,,0.03,weatherlink.com 1.10,2013-06-13 23:42:00,
2013-06-13 18:57:00,73.7,69.0,29.90,South,170,4.0,7.0,85,0.00,,,0.03,weatherlink.com 1.10,2013-06-13 23:57:00,
2013-06-13 19:13:00,73.5,69.0,29.90,East,85,0.0,5.0,85,0.00,,,0.03,weatherlink.com 1.10,2013-06-14 00:13:00,
2013-06-13 19:28:00,73.4,69.0,29.91,ENE,64,1.0,4.0,85,0.00,,,0.03,weatherlink.com 1.10,2013-06-14 00:28:00,
2013-06-13 19:43:00,73.4,69.0,29.91,SE,132,1.0,6.0,85,0.00,,,0.03,weatherlink.com 1.10,2013-06-14 00:43:00,
2013-06-13 19:58:00,73.3,69.0,29.89,SSE,167,1.0,3.0,86,0.00,,,0.03,weatherlink.com 1.10,2013-06-14 00:58:00,
2013-06-13 20:13:00,73.0,69.0,29.88,SSW,207,1.0,4.0,87,0.00,,,0.03,weatherlink.com 1.10,2013-06-14 01:13:00,
2013-06-13 20:28:00,72.8,69.0,29.88,South,172,0.0,2.0,88,0.00,,,0.03,weatherlink.com 1.10,2013-06-14 01:28:00,
2013-06-13 20:43:00,72.5,70.0,29.88,SW,222,1.0,2.0,90,0.00,,,0.03,weatherlink.com 1.10,2013-06-14 01:43:00,
2013-06-13 20:58:00,72.3,69.0,29.88,WSW,243,2.0,5.0,90,0.00,,,0.03,weatherlink.com 1.10,2013-06-14 01:58:00,
2013-06-13 21:13:00,72.3,69.0,29.89,SSE,165,2.0,6.0,90,0.00,,,0.03,weatherlink.com 1.10,2013-06-14 02:13:00,
2013-06-13 21:28:00,72.3,69.0,29.90,SSW,200,0.0,1.0,90,0.00,,,0.03,weatherlink.com 1.10,2013-06-14 02:28:00,
2013-06-13 21:43:00,72.2,69.0,29.90,SSW,204,0.0,3.0,90,0.00,,,0.03,weatherlink.com 1.10,2013-06-14 02:43:00,
2013-06-13 21:58:00,72.0,69.0,29.89,SSW,197,0.0,1.0,91,0.00,,,0.03,weatherlink.com 1.10,2013-06-14 02:58:00,
2013-06-13 22:13:00,71.6,69.0,29.89,SSW,198,0.0,1.0,92,0.00,,,0.03,weatherlink.com 1.10,2013-06-14 03:13:00,
2013-06-13 22:28:00,71.2,69.0,29.90,SSW,198,0.0,1.0,92,0.00,,,0.03,weatherlink.com 1.10,2013-06-14 03:28:00,
2013-06-13 22:43:00,70.8,68.0,29.91,SSW,198,0.0,0.0,92,0.00,,,0.03,weatherlink.com 1.10,2013-06-14 03:43:00,
2013-06-13 22:58:00,70.8,69.0,29.92,SSW,198,0.0,1.0,93,0.00,,,0.03,weatherlink.com 1.10,2013-06-14 03:58:00,
2013-06-13 23:13:00,71.0,69.0,29.92,SW,222,0.0,3.0,92,0.00,,,0.03,weatherlink.com 1.10,2013-06-14 04:13:00,
2013-06-13 23:28:00,71.2,69.0,29.92,SSW,205,0.0,3.0,91,0.00,,,0.03,weatherlink.com 1.10,2013-06-14 04:28:00,
2013-06-13 23:43:00,71.2,69.0,29.91,SW,226,0.0,1.0,91,0.00,,,0.03,weatherlink.com 1.10,2013-06-14 04:43:00,
2013-06-13 23:58:00,70.8,68.0,29.91,SW,226,0.0,0.0,91,0.00,,,0.03,weatherlink.com 1.10,2013-06-14 04:58:00,